createdAt,value
2022-10-20T00:01:03.179Z,15.77
2022-10-20T00:03:30.885Z,27.75
2022-10-20T00:06:09.141Z,12.10
2022-10-20T00:08:36.233Z,17.35
2022-10-20T00:11:03.712Z,13.10
2022-10-20T00:13:31.099Z,10.40
2022-10-20T00:15:59.629Z,15.18
2022-10-20T00:18:27.925Z,14.05
2022-10-20T00:20:55.087Z,14.23
2022-10-20T00:23:23.915Z,19.27
2022-10-20T00:26:04.704Z,25.17
2022-10-20T00:28:32.317Z,12.77
2022-10-20T00:30:59.559Z,16.15
2022-10-20T00:33:26.934Z,7.57
2022-10-20T00:35:53.944Z,12.95
2022-10-20T00:38:20.962Z,15.20
2022-10-20T00:40:48.081Z,12.68
2022-10-20T00:43:16.482Z,12.20
2022-10-20T00:45:49.924Z,26.77
2022-10-20T00:48:23.662Z,10.57
2022-10-20T00:50:53.915Z,10.40
2022-10-20T00:53:24.349Z,11.98
2022-10-20T00:55:54.741Z,11.20
2022-10-20T00:58:22.027Z,11.75
2022-10-20T01:00:53.493Z,10.15
2022-10-20T01:03:25.762Z,16.83
2022-10-20T01:05:52.862Z,12.52
2022-10-20T01:08:19.867Z,16.38
2022-10-20T01:11:03.777Z,8.65
2022-10-20T01:13:53.342Z,10.80
2022-10-20T01:17:01.006Z,12.80
2022-10-20T01:19:59.102Z,11.10
2022-10-20T01:22:47.734Z,16.20
2022-10-20T01:25:17.526Z,16.27
2022-10-20T01:28:01.235Z,6.50
2022-10-20T01:30:28.882Z,12.90
2022-10-20T01:33:11.144Z,15.10
2022-10-20T01:35:59.182Z,14.75
2022-10-20T01:38:48.884Z,10.07
2022-10-20T01:41:24.979Z,10.90
2022-10-20T01:43:53.652Z,9.73
2022-10-20T01:46:25.129Z,15.82
2022-10-20T01:48:53.494Z,15.52
2022-10-20T01:51:20.715Z,8.40
2022-10-20T01:53:47.757Z,8.23
2022-10-20T01:56:20.213Z,14.02
2022-10-20T01:59:00.137Z,9.25
2022-10-20T02:01:56.011Z,13.05
2022-10-20T02:04:33.663Z,14.93
2022-10-20T02:07:26.105Z,10.23
2022-10-20T02:10:00.475Z,9.95
2022-10-20T02:12:32.289Z,13.45
2022-10-20T02:15:00.877Z,11.00
2022-10-20T02:17:29.138Z,12.30
2022-10-20T02:19:57.929Z,12.25
2022-10-20T02:22:25.646Z,8.63
2022-10-20T02:24:52.723Z,11.73
2022-10-20T02:27:26.939Z,9.23
2022-10-20T02:30:16.102Z,11.63
2022-10-20T02:32:49.184Z,11.10
2022-10-20T02:35:23.220Z,9.05
2022-10-20T02:37:50.213Z,22.73
2022-10-20T02:40:17.334Z,12.43
2022-10-20T02:42:44.354Z,9.07
2022-10-20T02:45:11.424Z,16.38
2022-10-20T02:47:38.796Z,9.52
2022-10-20T02:50:07.725Z,8.57
2022-10-20T02:52:34.898Z,10.73
2022-10-20T02:55:02.321Z,12.70
2022-10-20T02:57:29.402Z,12.00
2022-10-20T02:59:56.521Z,13.90
2022-10-20T03:02:23.542Z,14.45
2022-10-20T03:04:50.537Z,9.07
2022-10-20T03:07:17.586Z,8.80
2022-10-20T03:09:44.745Z,8.85
2022-10-20T03:12:11.721Z,13.10
2022-10-20T03:14:38.736Z,13.55
2022-10-20T03:17:05.771Z,12.25
2022-10-20T03:19:32.766Z,24.25
2022-10-20T03:21:59.762Z,20.08
2022-10-20T03:24:26.835Z,23.15
2022-10-20T03:26:53.864Z,18.15
2022-10-20T03:29:20.864Z,21.80
2022-10-20T03:34:15.004Z,13.50
2022-10-20T03:36:42.043Z,12.98
2022-10-20T03:39:09.035Z,13.10
2022-10-20T03:41:36.067Z,8.68
2022-10-20T03:44:03.094Z,8.23
2022-10-20T03:46:30.251Z,10.52
2022-10-20T03:48:57.230Z,13.02
2022-10-20T03:51:24.237Z,13.07
2022-10-20T03:53:51.242Z,20.92
2022-10-20T03:56:19.913Z,17.27
2022-10-20T03:58:47.450Z,7.47
2022-10-20T04:01:21.013Z,12.15
2022-10-20T04:03:48.073Z,7.07
2022-10-20T04:06:15.686Z,8.77
2022-10-20T04:08:42.780Z,9.35
2022-10-20T04:11:09.983Z,10.13
2022-10-20T04:13:37.001Z,9.90
2022-10-20T04:16:04.148Z,13.35
2022-10-20T04:18:31.732Z,7.68
2022-10-20T04:20:58.863Z,9.38
2022-10-20T04:23:25.880Z,10.90
2022-10-20T04:25:52.892Z,6.72
2022-10-20T04:28:20.423Z,11.45
2022-10-20T04:30:48.881Z,15.90
2022-10-20T04:33:16.518Z,5.55
2022-10-20T04:35:43.714Z,14.02
2022-10-20T04:38:10.833Z,9.30
2022-10-20T04:40:37.855Z,11.35
2022-10-20T04:43:05.982Z,12.70
2022-10-20T04:45:33.056Z,9.70
2022-10-20T04:48:00.108Z,10.63
2022-10-20T04:50:27.135Z,7.55
2022-10-20T04:53:07.853Z,13.68
2022-10-20T04:55:35.862Z,11.93
2022-10-20T04:58:03.367Z,13.90
2022-10-20T05:00:30.415Z,8.40
2022-10-20T05:02:57.478Z,15.77
2022-10-20T05:05:24.494Z,9.98
2022-10-20T05:07:51.485Z,15.90
2022-10-20T05:10:19.290Z,14.10
2022-10-20T05:12:46.451Z,9.18
2022-10-20T05:15:13.494Z,10.43
2022-10-20T05:17:40.481Z,25.27
2022-10-20T05:20:07.948Z,10.45
2022-10-20T05:22:35.349Z,13.30
2022-10-20T05:25:24.534Z,15.07
2022-10-20T05:27:49.680Z,11.35
2022-10-20T05:30:16.781Z,10.90
2022-10-20T05:32:45.732Z,12.25
2022-10-20T05:35:12.727Z,9.63
2022-10-20T05:37:39.723Z,13.98
2022-10-20T05:40:07.696Z,9.55
2022-10-20T05:42:35.772Z,13.07
2022-10-20T05:45:03.618Z,13.27
2022-10-20T05:47:30.695Z,11.32
2022-10-20T05:49:57.679Z,11.90
2022-10-20T05:52:24.754Z,9.38
2022-10-20T05:54:51.742Z,13.02
2022-10-20T05:57:18.975Z,12.88
2022-10-20T05:59:46.206Z,18.50
2022-10-20T06:02:13.809Z,20.80
2022-10-20T06:04:40.791Z,19.13
2022-10-20T06:07:09.965Z,9.90
2022-10-20T06:09:38.043Z,12.68
2022-10-20T06:12:05.889Z,12.15
2022-10-20T06:14:33.372Z,14.50
2022-10-20T06:17:00.389Z,12.93
2022-10-20T06:19:27.364Z,15.27
2022-10-20T06:21:54.716Z,11.10
2022-10-20T06:24:21.882Z,18.92
2022-10-20T06:26:49.134Z,9.80
2022-10-20T06:29:17.916Z,9.60
2022-10-20T06:31:50.151Z,12.00
2022-10-20T06:34:20.270Z,17.10
2022-10-20T06:36:48.750Z,12.55
2022-10-20T06:39:21.724Z,11.25
2022-10-20T06:41:50.707Z,11.32
2022-10-20T06:44:22.700Z,18.50
2022-10-20T06:46:52.277Z,17.27
2022-10-20T06:49:19.529Z,17.00
2022-10-20T06:51:46.667Z,12.85
2022-10-20T06:54:13.677Z,14.30
2022-10-20T06:56:41.077Z,9.57
2022-10-20T06:59:08.089Z,15.43
2022-10-20T07:01:37.093Z,18.02
2022-10-20T07:04:07.523Z,13.40
2022-10-20T07:06:39.829Z,26.15
2022-10-20T07:09:09.048Z,20.55
2022-10-20T07:11:36.320Z,14.32
2022-10-20T07:14:04.460Z,16.00
2022-10-20T07:16:33.848Z,17.30
2022-10-20T07:19:02.479Z,24.83
2022-10-20T07:21:34.953Z,20.10
2022-10-20T07:24:05.955Z,17.58
2022-10-20T07:26:35.577Z,11.18
2022-10-20T07:29:04.021Z,13.98
2022-10-20T07:31:45.249Z,24.55
2022-10-20T07:34:24.266Z,20.75
2022-10-20T07:36:52.196Z,15.77
2022-10-20T07:39:19.390Z,13.35
2022-10-20T07:41:47.949Z,18.92
2022-10-20T07:44:15.754Z,14.15
2022-10-20T07:46:42.930Z,20.90
2022-10-20T07:49:42.863Z,13.50
2022-10-20T07:51:57.049Z,21.95
2022-10-20T07:54:24.126Z,17.58
2022-10-20T07:56:51.271Z,16.48
2022-10-20T07:59:19.105Z,15.68
2022-10-20T08:01:46.753Z,10.23
2022-10-20T08:04:13.880Z,18.02
2022-10-20T08:06:40.953Z,16.60
2022-10-20T08:09:08.392Z,12.40
2022-10-20T08:11:36.009Z,26.40
2022-10-20T08:14:03.179Z,16.38
2022-10-20T08:16:30.494Z,12.60
2022-10-20T08:21:29.557Z,12.50
2022-10-20T08:23:56.611Z,11.90
2022-10-20T08:26:26.081Z,15.95
2022-10-20T08:28:54.350Z,17.05
2022-10-20T08:31:21.959Z,13.98
2022-10-20T08:33:52.600Z,19.25
2022-10-20T08:36:21.197Z,14.68
2022-10-20T08:38:48.681Z,11.68
2022-10-20T08:41:19.460Z,18.95
2022-10-20T08:43:50.269Z,12.48
2022-10-20T08:46:19.956Z,16.20
2022-10-20T08:48:48.722Z,14.20
2022-10-20T08:51:31.823Z,16.05
2022-10-20T08:54:01.836Z,13.00
2022-10-20T08:56:30.326Z,14.07
2022-10-20T08:58:57.586Z,11.48
2022-10-20T09:01:30.783Z,19.63
2022-10-20T09:04:02.847Z,12.43
2022-10-20T09:06:29.902Z,13.35
2022-10-20T09:08:57.857Z,20.85
2022-10-20T09:11:32.845Z,20.27
2022-10-20T09:13:59.997Z,13.65
2022-10-20T09:16:40.804Z,20.80
2022-10-20T09:19:21.291Z,11.93
2022-10-20T09:21:52.683Z,15.80
2022-10-20T09:24:22.321Z,16.23
2022-10-20T09:26:59.040Z,14.35
2022-10-20T09:29:38.030Z,12.98
2022-10-20T09:32:44.933Z,13.88
2022-10-20T09:35:23.503Z,13.88
2022-10-20T09:38:26.466Z,18.40
2022-10-20T09:41:18.521Z,14.30
2022-10-20T09:44:08.418Z,15.55
2022-10-20T09:46:54.718Z,20.02
2022-10-20T09:49:35.203Z,20.27
2022-10-20T09:52:04.461Z,12.57
2022-10-20T09:54:35.493Z,14.68
2022-10-20T09:57:08.813Z,10.63
2022-10-20T09:59:40.432Z,14.35
2022-10-20T10:02:13.260Z,15.38
2022-10-20T10:04:43.237Z,14.98
2022-10-20T10:07:36.734Z,13.52
2022-10-20T10:10:08.626Z,15.88
2022-10-20T10:12:36.675Z,25.92
2022-10-20T10:15:23.966Z,16.25
2022-10-20T10:17:51.468Z,21.92
2022-10-20T10:20:18.386Z,16.20
2022-10-20T10:22:45.464Z,15.60
2022-10-20T10:25:20.030Z,30.92
2022-10-20T10:28:03.281Z,15.73
2022-10-20T10:30:35.852Z,15.07
2022-10-20T10:33:24.534Z,21.75
2022-10-20T10:35:52.452Z,21.63
2022-10-20T10:38:20.212Z,18.63
2022-10-20T10:40:59.323Z,16.85
2022-10-20T10:43:48.757Z,18.88
2022-10-20T10:46:26.102Z,15.38
2022-10-20T10:49:27.306Z,13.02
2022-10-20T10:52:17.319Z,22.67
2022-10-20T10:55:48.377Z,24.58
2022-10-20T10:58:27.948Z,20.08
2022-10-20T11:00:57.967Z,24.13
2022-10-20T11:04:04.238Z,23.25
2022-10-20T11:06:44.876Z,16.08
2022-10-20T11:09:36.780Z,14.82
2022-10-20T11:12:29.616Z,22.42
2022-10-20T11:15:08.481Z,24.65
2022-10-20T11:17:55.743Z,20.77
2022-10-20T11:20:31.075Z,15.57
2022-10-20T11:23:23.536Z,26.77
2022-10-20T11:26:29.225Z,31.48
2022-10-20T11:28:58.120Z,21.95
2022-10-20T11:31:31.745Z,23.90
2022-10-20T11:34:06.801Z,20.52
2022-10-20T11:36:43.139Z,14.10
2022-10-20T11:39:17.903Z,15.88
2022-10-20T11:41:50.139Z,24.73
2022-10-20T11:44:27.370Z,32.53
2022-10-20T11:47:05.818Z,17.33
2022-10-20T11:49:34.226Z,27.90
2022-10-20T11:52:10.110Z,19.42
2022-10-20T11:55:36.039Z,27.27
2022-10-20T11:58:34.126Z,25.70
2022-10-20T12:01:22.747Z,20.45
2022-10-20T12:04:01.971Z,22.20
2022-10-20T12:06:47.290Z,17.83
2022-10-20T12:09:20.353Z,17.88
2022-10-20T12:11:58.474Z,17.58
2022-10-20T12:14:38.544Z,21.27
2022-10-20T12:17:31.934Z,17.23
2022-10-20T12:20:21.019Z,20.17
2022-10-20T12:22:52.099Z,15.13
2022-10-20T12:25:19.182Z,23.10
2022-10-20T12:27:46.216Z,16.38
2022-10-20T12:30:37.867Z,27.33
2022-10-20T12:33:33.943Z,21.17
2022-10-20T12:36:22.869Z,17.55
2022-10-20T12:39:06.460Z,30.00
2022-10-20T12:41:39.186Z,21.90
2022-10-20T12:46:44.318Z,17.17
2022-10-20T12:49:24.990Z,21.95
2022-10-20T12:51:55.150Z,18.55
2022-10-20T12:54:27.520Z,19.63
2022-10-20T12:57:00.172Z,18.05
2022-10-20T13:02:09.177Z,20.15
2022-10-20T13:05:01.486Z,29.27
2022-10-20T13:07:46.941Z,25.63
2022-10-20T13:10:31.173Z,24.25
2022-10-20T13:13:00.869Z,24.50
2022-10-20T13:15:31.281Z,21.80
2022-10-20T13:18:02.469Z,26.00
2022-10-20T13:20:43.110Z,27.48
2022-10-20T13:23:13.971Z,26.10
2022-10-20T13:25:50.807Z,31.05
2022-10-20T13:28:23.546Z,25.95
2022-10-20T13:34:05.022Z,28.30
2022-10-20T13:36:47.953Z,27.15
2022-10-20T13:39:33.418Z,21.70
2022-10-20T13:42:17.390Z,26.15
2022-10-20T13:45:01.613Z,22.58
2022-10-20T13:47:48.829Z,25.15
2022-10-20T13:50:23.712Z,22.30
2022-10-20T13:52:54.998Z,21.90
2022-10-20T13:55:25.951Z,22.83
2022-10-20T13:58:00.031Z,27.80
2022-10-20T14:00:30.104Z,20.02
2022-10-20T14:03:16.166Z,32.60
2022-10-20T14:05:43.246Z,25.35
2022-10-20T14:08:13.824Z,24.45
2022-10-20T14:10:59.866Z,19.65
2022-10-20T14:13:34.392Z,26.15
2022-10-20T14:16:05.713Z,22.88
2022-10-20T14:18:36.011Z,20.85
2022-10-20T14:21:15.293Z,21.27
2022-10-20T14:23:44.413Z,29.02
2022-10-20T14:26:18.738Z,22.30
2022-10-20T14:28:47.157Z,27.58
2022-10-20T14:31:14.898Z,30.20
2022-10-20T14:33:46.387Z,19.90
2022-10-20T14:36:20.879Z,24.02
2022-10-20T14:38:51.091Z,24.17
2022-10-20T14:41:32.712Z,25.13
2022-10-20T14:44:05.268Z,26.05
2022-10-20T14:46:36.847Z,29.20
2022-10-20T14:49:14.314Z,24.95
2022-10-20T14:51:45.090Z,28.25
2022-10-20T14:54:21.294Z,26.05
2022-10-20T14:57:22.097Z,27.58
2022-10-20T15:00:03.968Z,26.05
2022-10-20T15:02:41.202Z,24.47
2022-10-20T15:05:30.968Z,27.88
2022-10-20T15:08:02.398Z,23.58
2022-10-20T15:10:31.904Z,30.27
2022-10-20T15:12:58.967Z,26.75
2022-10-20T15:15:29.162Z,29.30
2022-10-20T15:18:16.340Z,34.42
2022-10-20T15:20:45.392Z,35.25
2022-10-20T15:23:18.641Z,31.33
2022-10-20T15:26:09.463Z,29.52
2022-10-20T15:28:45.461Z,34.05
2022-10-20T15:31:12.440Z,32.03
2022-10-20T15:33:40.546Z,37.10
2022-10-20T15:36:16.088Z,32.50
2022-10-20T15:38:43.398Z,40.38
2022-10-20T15:41:22.202Z,25.02
2022-10-20T15:43:49.517Z,27.92
2022-10-20T15:46:18.140Z,48.17
2022-10-20T15:48:45.649Z,25.92
2022-10-20T15:51:29.639Z,27.58
2022-10-20T15:53:57.501Z,26.13
2022-10-20T15:56:24.957Z,29.90
2022-10-20T15:58:52.036Z,28.00
2022-10-20T16:01:21.207Z,20.65
2022-10-20T16:03:48.808Z,27.05
2022-10-20T16:06:18.537Z,25.05
2022-10-20T16:08:48.167Z,21.58
2022-10-20T16:11:16.472Z,23.83
2022-10-20T16:13:43.951Z,20.38
2022-10-20T16:16:14.609Z,17.63
2022-10-20T16:18:41.783Z,20.30
2022-10-20T16:21:09.605Z,24.92
2022-10-20T16:23:42.080Z,19.95
2022-10-20T16:26:13.533Z,16.55
2022-10-20T16:28:40.629Z,17.92
2022-10-20T16:31:11.467Z,27.50
2022-10-20T16:33:38.558Z,18.13
2022-10-20T16:38:40.478Z,14.70
2022-10-20T16:41:11.052Z,14.15
2022-10-20T16:43:40.109Z,18.70
2022-10-20T16:46:10.565Z,16.38
2022-10-20T16:48:43.939Z,23.75
2022-10-20T16:51:15.225Z,19.50
2022-10-20T16:53:42.384Z,16.63
2022-10-20T16:56:09.528Z,19.05
2022-10-20T16:58:36.712Z,22.52
2022-10-20T17:01:10.881Z,21.40
2022-10-20T17:08:38.922Z,24.35
2022-10-20T17:11:10.131Z,24.05
2022-10-20T17:13:38.379Z,23.08
2022-10-20T17:16:20.692Z,32.08
2022-10-20T17:18:49.677Z,30.38
2022-10-20T17:21:24.094Z,25.25
2022-10-20T17:23:51.268Z,31.10
2022-10-20T17:26:23.027Z,25.17
2022-10-20T17:28:54.345Z,28.57
2022-10-20T17:31:22.700Z,33.15
2022-10-20T17:33:51.345Z,31.73
2022-10-20T17:36:20.119Z,31.42
2022-10-20T17:38:47.309Z,29.48
2022-10-20T17:41:16.409Z,32.38
2022-10-20T17:43:43.640Z,36.22
2022-10-20T17:46:16.082Z,35.10
2022-10-20T17:48:43.525Z,35.67
2022-10-20T17:51:19.728Z,34.47
2022-10-20T17:53:48.538Z,36.85
2022-10-20T17:56:17.653Z,37.75
2022-10-20T17:58:46.567Z,33.20
2022-10-20T18:01:27.355Z,44.67
2022-10-20T18:03:57.071Z,46.97
2022-10-20T18:06:31.205Z,41.75
2022-10-20T18:09:15.438Z,47.75
2022-10-20T18:11:45.541Z,39.33
2022-10-20T18:14:12.682Z,41.60
2022-10-20T18:16:40.771Z,43.25
2022-10-20T18:19:09.040Z,42.45
2022-10-20T18:21:36.147Z,36.00
2022-10-20T18:24:06.221Z,38.65
2022-10-20T18:26:35.669Z,37.28
2022-10-20T18:29:05.561Z,35.83
2022-10-20T18:31:34.113Z,34.55
2022-10-20T18:34:05.661Z,37.00
2022-10-20T18:39:01.944Z,43.88
2022-10-20T18:41:37.273Z,38.08
2022-10-20T18:44:08.102Z,41.88
2022-10-20T18:46:35.504Z,38.90
2022-10-20T18:49:04.964Z,36.95
2022-10-20T18:51:32.570Z,39.47
2022-10-20T18:54:00.922Z,37.05
2022-10-20T18:56:30.067Z,32.47
2022-10-20T18:59:02.823Z,35.33
2022-10-20T19:01:32.766Z,36.80
2022-10-20T19:04:00.761Z,34.03
2022-10-20T19:06:30.630Z,26.30
2022-10-20T19:09:00.616Z,33.15
2022-10-20T19:11:30.293Z,32.10
2022-10-20T19:13:58.294Z,30.38
2022-10-20T19:16:28.292Z,36.55
2022-10-20T19:18:57.100Z,35.88
2022-10-20T19:21:25.477Z,41.92
2022-10-20T19:24:04.461Z,34.08
2022-10-20T19:26:34.006Z,36.33
2022-10-20T19:29:05.166Z,34.45
2022-10-20T19:31:39.287Z,42.28
2022-10-20T19:34:13.191Z,43.30
2022-10-20T19:36:41.372Z,36.95
2022-10-20T19:39:11.149Z,45.00
2022-10-20T19:41:38.355Z,35.53
2022-10-20T19:44:06.331Z,35.85
2022-10-20T19:46:33.767Z,35.78
2022-10-20T19:49:00.837Z,46.15
2022-10-20T19:51:27.954Z,66.20
2022-10-20T19:53:55.178Z,49.20
2022-10-20T19:56:22.269Z,43.55
2022-10-20T19:58:49.466Z,48.17
2022-10-20T20:01:16.933Z,44.42
2022-10-20T20:03:44.942Z,43.33
2022-10-20T20:06:18.195Z,42.90
2022-10-20T20:08:50.636Z,35.00
2022-10-20T20:11:23.844Z,32.80
2022-10-20T20:13:52.146Z,41.70
2022-10-20T20:16:19.272Z,36.92
2022-10-20T20:18:46.460Z,34.65
2022-10-20T20:21:14.383Z,42.60
2022-10-20T20:23:58.355Z,38.53
2022-10-20T20:26:27.559Z,34.92
2022-10-20T20:28:55.153Z,36.47
2022-10-20T20:31:23.474Z,32.67
2022-10-20T20:33:50.687Z,38.95
2022-10-20T20:36:17.725Z,34.55
2022-10-20T20:38:52.619Z,37.72
2022-10-20T20:41:24.103Z,34.95
2022-10-20T20:43:51.280Z,39.83
2022-10-20T20:46:20.413Z,35.05
2022-10-20T20:48:47.476Z,38.60
2022-10-20T20:51:14.821Z,39.78
2022-10-20T20:53:42.093Z,33.45
2022-10-20T20:56:12.213Z,32.88
2022-10-20T20:58:40.686Z,37.50
2022-10-20T21:01:12.303Z,33.45
2022-10-20T21:03:39.861Z,37.58
2022-10-20T21:06:14.899Z,36.83
2022-10-20T21:08:44.557Z,33.95
2022-10-20T21:11:13.923Z,28.88
2022-10-20T21:13:42.005Z,39.70
2022-10-20T21:16:23.651Z,33.55
2022-10-20T21:18:53.943Z,43.17
2022-10-20T21:21:25.916Z,34.78
2022-10-20T21:23:54.129Z,35.75
2022-10-20T21:26:22.090Z,31.33
2022-10-20T21:28:49.981Z,35.50
2022-10-20T21:31:19.187Z,31.08
2022-10-20T21:33:50.281Z,40.83
2022-10-20T21:36:19.214Z,33.20
2022-10-20T21:38:47.160Z,35.00
2022-10-20T21:41:22.638Z,33.60
2022-10-20T21:43:52.988Z,33.65
2022-10-20T21:46:27.451Z,37.53
2022-10-20T21:48:58.958Z,40.28
2022-10-20T21:51:37.565Z,38.65
2022-10-20T21:54:11.773Z,44.28
2022-10-20T21:56:41.176Z,43.03
2022-10-20T21:59:14.753Z,40.90
2022-10-20T22:01:41.768Z,41.20
2022-10-20T22:04:08.799Z,43.30
2022-10-20T22:06:37.279Z,37.55
2022-10-20T22:09:05.232Z,51.08
2022-10-20T22:11:35.678Z,49.78
2022-10-20T22:14:03.386Z,41.88
2022-10-20T22:16:33.789Z,38.40
2022-10-20T22:19:05.059Z,44.40
2022-10-20T22:21:36.686Z,46.85
2022-10-20T22:24:04.730Z,40.72
2022-10-20T22:26:33.229Z,36.30
2022-10-20T22:29:01.128Z,41.92
2022-10-20T22:31:28.254Z,34.03
2022-10-20T22:33:56.959Z,34.38
2022-10-20T22:36:24.786Z,32.53
2022-10-20T22:38:52.507Z,31.98
2022-10-20T22:41:19.757Z,29.80
2022-10-20T22:43:47.488Z,35.47
2022-10-20T22:46:15.965Z,30.25
2022-10-20T22:48:43.791Z,28.90
2022-10-20T22:51:10.969Z,36.67
2022-10-20T22:53:38.408Z,32.45
2022-10-20T22:56:11.695Z,31.88
2022-10-20T22:58:39.181Z,28.90
2022-10-20T23:01:15.362Z,32.40
2022-10-20T23:03:42.903Z,33.13
2022-10-20T23:06:15.925Z,34.20
2022-10-20T23:08:45.867Z,37.72
2022-10-20T23:11:14.463Z,35.20
2022-10-20T23:13:42.124Z,34.30
2022-10-20T23:16:09.945Z,27.48
2022-10-20T23:18:37.187Z,39.22
2022-10-20T23:21:04.478Z,33.33
2022-10-20T23:23:32.655Z,39.28
2022-10-20T23:26:02.308Z,35.10
2022-10-20T23:28:32.611Z,33.53
2022-10-20T23:31:17.310Z,30.70
2022-10-20T23:33:46.213Z,28.75
2022-10-20T23:36:15.102Z,29.48
2022-10-20T23:38:43.618Z,28.80
2022-10-20T23:41:10.670Z,31.65
2022-10-20T23:43:37.749Z,31.27
2022-10-20T23:46:05.768Z,35.10
2022-10-20T23:48:33.337Z,32.70
2022-10-20T23:51:00.482Z,28.70
2022-10-20T23:53:27.519Z,31.75
2022-10-20T23:55:54.598Z,30.40
2022-10-20T23:58:23.038Z,25.15
